createdAt,value
2018-06-09T00:02:23.164Z,21.33
2018-06-09T00:04:53.750Z,21.32
2018-06-09T00:07:24.340Z,21.26
2018-06-09T00:09:54.970Z,21.26
2018-06-09T00:12:25.564Z,21.23
2018-06-09T00:14:56.196Z,21.19
2018-06-09T00:17:26.757Z,21.18
2018-06-09T00:19:57.332Z,21.20
2018-06-09T00:22:27.893Z,21.18
2018-06-09T00:24:58.908Z,21.13
2018-06-09T00:27:29.537Z,21.09
2018-06-09T00:30:00.102Z,21.08
2018-06-09T00:32:30.686Z,21.04
2018-06-09T00:35:01.338Z,21.00
2018-06-09T00:37:31.895Z,20.98
2018-06-09T00:40:02.556Z,20.97
2018-06-09T00:42:33.147Z,20.96
2018-06-09T00:45:03.768Z,20.94
2018-06-09T00:47:34.363Z,20.89
2018-06-09T00:50:05.025Z,20.86
2018-06-09T00:52:35.669Z,20.84
2018-06-09T00:55:06.350Z,20.83
2018-06-09T00:57:36.991Z,20.81
2018-06-09T01:00:07.764Z,20.82
2018-06-09T01:02:38.394Z,20.82
2018-06-09T01:05:09.050Z,20.82
2018-06-09T01:07:39.299Z,20.78
2018-06-09T01:10:09.833Z,20.75
2018-06-09T01:12:41.453Z,20.70
2018-06-09T01:15:12.222Z,20.66
2018-06-09T01:17:42.828Z,20.64
2018-06-09T01:20:13.526Z,20.64
2018-06-09T01:22:44.114Z,20.63
2018-06-09T01:25:14.713Z,20.64
2018-06-09T01:27:45.308Z,20.63
2018-06-09T01:30:15.909Z,20.62
2018-06-09T01:32:46.458Z,20.60
2018-06-09T01:35:17.077Z,20.58
2018-06-09T01:37:47.670Z,20.56
2018-06-09T01:40:18.261Z,20.52
2018-06-09T01:42:48.868Z,20.49
2018-06-09T01:45:19.437Z,20.47
2018-06-09T01:47:50.064Z,20.44
2018-06-09T01:50:20.621Z,20.42
2018-06-09T01:52:51.229Z,20.37
2018-06-09T01:55:22.180Z,20.36
2018-06-09T01:57:52.753Z,20.32
2018-06-09T02:00:23.433Z,20.32
2018-06-09T02:02:53.999Z,20.31
2018-06-09T02:05:24.607Z,20.29
2018-06-09T02:07:55.193Z,20.28
2018-06-09T02:10:25.851Z,20.24
2018-06-09T02:12:56.472Z,20.20
2018-06-09T02:15:27.031Z,20.16
2018-06-09T02:17:57.562Z,20.13
2018-06-09T02:20:28.177Z,20.12
2018-06-09T02:22:58.735Z,20.08
2018-06-09T02:25:29.305Z,20.05
2018-06-09T02:27:59.919Z,20.01
2018-06-09T02:30:30.522Z,19.99
2018-06-09T02:33:01.772Z,19.97
2018-06-09T02:35:32.364Z,19.94
2018-06-09T02:38:03.484Z,19.93
2018-06-09T02:40:34.040Z,19.93
2018-06-09T02:43:04.961Z,19.93
2018-06-09T02:45:35.564Z,19.93
2018-06-09T02:48:06.170Z,19.94
2018-06-09T02:50:36.762Z,19.95
2018-06-09T02:53:07.334Z,19.92
2018-06-09T02:55:37.910Z,19.91
2018-06-09T02:58:08.561Z,19.92
2018-06-09T03:00:39.133Z,19.86
2018-06-09T03:03:09.750Z,19.82
2018-06-09T03:05:40.286Z,19.79
2018-06-09T03:08:41.514Z,19.79
2018-06-09T03:11:12.081Z,19.77
2018-06-09T03:13:42.697Z,19.73
2018-06-09T03:16:13.325Z,19.74
2018-06-09T03:18:43.947Z,19.75
2018-06-09T03:21:14.506Z,19.73
2018-06-09T03:23:45.080Z,19.71
2018-06-09T03:26:15.653Z,19.69
2018-06-09T03:28:46.207Z,19.67
2018-06-09T03:31:16.776Z,19.65
2018-06-09T03:33:47.358Z,19.66
2018-06-09T03:36:17.975Z,19.67
2018-06-09T03:38:48.557Z,19.67
2018-06-09T03:41:19.160Z,19.67
2018-06-09T03:43:49.735Z,19.69
2018-06-09T03:46:20.333Z,19.68
2018-06-09T03:48:50.906Z,19.69
2018-06-09T03:51:21.527Z,19.69
2018-06-09T03:53:52.131Z,19.68
2018-06-09T03:56:22.766Z,19.67
2018-06-09T03:58:53.377Z,19.63
2018-06-09T04:01:23.951Z,19.62
2018-06-09T04:03:54.517Z,19.59
2018-06-09T04:06:25.095Z,19.55
2018-06-09T04:08:55.696Z,19.54
2018-06-09T04:11:26.253Z,19.52
2018-06-09T04:13:56.856Z,19.53
2018-06-09T04:16:27.484Z,19.53
2018-06-09T04:18:58.037Z,19.53
2018-06-09T04:21:28.624Z,19.54
2018-06-09T04:23:59.252Z,19.55
2018-06-09T04:26:29.797Z,19.57
2018-06-09T04:29:00.375Z,19.60
2018-06-09T04:31:30.924Z,19.62
2018-06-09T04:34:01.627Z,19.67
2018-06-09T04:36:32.259Z,19.71
2018-06-09T04:39:02.898Z,19.77
2018-06-09T04:41:33.462Z,19.79
2018-06-09T04:44:04.146Z,19.83
2018-06-09T04:46:34.719Z,19.88
2018-06-09T04:49:05.314Z,19.91
2018-06-09T04:51:35.945Z,19.95
2018-06-09T04:54:06.588Z,19.98
2018-06-09T04:56:37.168Z,20.04
2018-06-09T04:59:07.808Z,20.10
2018-06-09T05:01:38.464Z,20.17
2018-06-09T05:04:09.093Z,20.25
2018-06-09T05:06:39.645Z,20.33
2018-06-09T05:09:10.246Z,20.42
2018-06-09T05:11:40.824Z,20.50
2018-06-09T05:14:11.382Z,20.55
2018-06-09T05:16:42.018Z,20.60
2018-06-09T05:19:12.611Z,20.62
2018-06-09T05:21:43.185Z,20.61
2018-06-09T05:24:13.777Z,20.64
2018-06-09T05:26:44.362Z,20.68
2018-06-09T05:29:14.948Z,20.70
2018-06-09T05:31:45.562Z,20.73
2018-06-09T05:34:16.202Z,20.76
2018-06-09T05:36:46.757Z,20.80
2018-06-09T05:39:17.372Z,20.87
2018-06-09T05:41:47.990Z,20.98
2018-06-09T05:44:18.555Z,21.11
2018-06-09T05:46:50.093Z,21.20
2018-06-09T05:49:20.753Z,21.28
2018-06-09T05:51:51.360Z,21.34
2018-06-09T05:54:22.317Z,21.40
2018-06-09T05:56:52.953Z,21.49
2018-06-09T05:59:23.724Z,21.55
2018-06-09T06:01:54.328Z,21.59
2018-06-09T06:04:24.965Z,21.62
2018-06-09T06:06:55.582Z,21.74
2018-06-09T06:09:26.166Z,21.71
2018-06-09T06:11:56.802Z,21.77
2018-06-09T06:14:27.434Z,21.85
2018-06-09T06:16:57.994Z,21.97
2018-06-09T06:19:29.002Z,22.10
2018-06-09T06:21:59.604Z,22.18
2018-06-09T06:24:29.887Z,22.22
2018-06-09T06:27:00.354Z,22.31
2018-06-09T06:29:30.941Z,22.27
2018-06-09T06:32:01.643Z,22.21
2018-06-09T06:34:32.269Z,22.34
2018-06-09T06:37:02.849Z,22.43
2018-06-09T06:39:33.399Z,22.59
2018-06-09T06:42:03.981Z,22.69
2018-06-09T06:44:34.533Z,22.74
2018-06-09T06:47:05.268Z,22.83
2018-06-09T06:49:35.852Z,22.92
2018-06-09T06:52:06.484Z,23.04
2018-06-09T06:54:37.044Z,23.12
2018-06-09T06:57:07.613Z,23.16
2018-06-09T06:59:38.182Z,23.23
2018-06-09T07:02:08.813Z,23.30
2018-06-09T07:04:39.416Z,23.47
2018-06-09T07:07:09.981Z,23.55
2018-06-09T07:09:40.535Z,23.42
2018-06-09T07:12:11.128Z,23.40
2018-06-09T07:14:41.668Z,23.53
2018-06-09T07:17:12.232Z,23.58
2018-06-09T07:19:42.837Z,23.67
2018-06-09T07:22:13.413Z,23.59
2018-06-09T07:24:43.999Z,23.68
2018-06-09T07:27:14.596Z,23.88
2018-06-09T07:29:45.198Z,24.12
2018-06-09T07:32:15.798Z,24.34
2018-06-09T07:34:46.350Z,24.49
2018-06-09T07:37:16.900Z,24.61
2018-06-09T07:39:47.467Z,24.65
2018-06-09T07:42:18.022Z,24.65
2018-06-09T07:44:48.779Z,24.67
2018-06-09T07:47:50.210Z,24.77
2018-06-09T07:50:20.741Z,24.78
2018-06-09T07:52:51.318Z,24.76
2018-06-09T07:55:21.904Z,24.83
2018-06-09T07:57:52.484Z,24.86
2018-06-09T08:00:23.087Z,24.87
2018-06-09T08:02:53.672Z,24.89
2018-06-09T08:05:24.223Z,25.00
2018-06-09T08:07:54.793Z,25.04
2018-06-09T08:10:25.392Z,25.07
2018-06-09T08:12:56.008Z,25.17
2018-06-09T08:15:26.610Z,25.32
2018-06-09T08:17:57.213Z,25.37
2018-06-09T08:20:27.774Z,25.43
2018-06-09T08:22:58.320Z,25.54
2018-06-09T08:25:28.893Z,25.63
2018-06-09T08:31:00.653Z,25.92
2018-06-09T08:33:31.210Z,26.02
2018-06-09T08:36:01.783Z,26.06
2018-06-09T08:38:33.454Z,26.10
2018-06-09T08:41:04.020Z,26.11
2018-06-09T08:43:34.603Z,26.12
2018-06-09T08:46:05.299Z,26.26
2018-06-09T08:48:35.886Z,26.45
2018-06-09T08:51:06.452Z,26.60
2018-06-09T08:53:37.029Z,26.72
2018-06-09T08:56:07.633Z,26.90
2018-06-09T08:58:38.213Z,26.98
2018-06-09T09:01:08.870Z,27.12
2018-06-09T09:03:40.142Z,27.28
2018-06-09T09:06:10.733Z,27.30
2018-06-09T09:08:41.348Z,27.46
2018-06-09T09:11:11.942Z,27.63
2018-06-09T09:13:42.539Z,27.83
2018-06-09T09:16:13.158Z,27.76
2018-06-09T09:18:43.748Z,27.89
2018-06-09T09:21:14.295Z,28.02
2018-06-09T09:23:44.865Z,28.07
2018-06-09T09:26:15.439Z,27.95
2018-06-09T09:28:46.026Z,27.78
2018-06-09T09:31:16.570Z,27.76
2018-06-09T09:33:47.130Z,27.75
2018-06-09T09:36:17.685Z,27.78
2018-06-09T09:38:48.284Z,27.78
2018-06-09T09:41:18.895Z,27.84
2018-06-09T09:43:49.502Z,28.07
2018-06-09T09:46:20.069Z,28.33
2018-06-09T09:48:50.635Z,28.40
2018-06-09T09:51:21.168Z,28.64
2018-06-09T09:53:51.783Z,28.91
2018-06-09T09:56:22.316Z,29.20
2018-06-09T09:58:52.866Z,29.42
2018-06-09T10:01:23.459Z,29.72
2018-06-09T10:03:54.029Z,29.94
2018-06-09T10:06:24.596Z,30.09
2018-06-09T10:08:55.138Z,30.22
2018-06-09T10:11:25.708Z,30.22
2018-06-09T10:13:56.260Z,29.97
2018-06-09T10:19:03.513Z,29.88
2018-06-09T10:21:34.148Z,29.88
2018-06-09T10:24:04.668Z,29.83
2018-06-09T10:26:35.248Z,30.25
2018-06-09T10:29:05.817Z,30.66
2018-06-09T10:31:36.443Z,30.92
2018-06-09T10:34:06.940Z,31.11
2018-06-09T10:36:37.555Z,31.43
2018-06-09T10:39:09.094Z,31.73
2018-06-09T10:41:40.809Z,31.96
2018-06-09T10:44:11.338Z,32.12
2018-06-09T10:46:41.892Z,32.18
2018-06-09T10:49:12.435Z,32.36
2018-06-09T10:51:42.977Z,32.41
2018-06-09T10:54:13.524Z,32.44
2018-06-09T10:56:44.106Z,32.58
2018-06-09T10:59:14.657Z,32.76
2018-06-09T11:01:44.908Z,32.95
2018-06-09T11:04:15.298Z,33.17
2018-06-09T11:06:45.902Z,33.20
2018-06-09T11:09:16.445Z,33.16
2018-06-09T11:11:46.995Z,33.31
2018-06-09T11:14:17.520Z,33.47
2018-06-09T11:16:48.093Z,33.48
2018-06-09T11:19:18.344Z,33.49
2018-06-09T11:21:48.782Z,33.75
2018-06-09T11:24:19.342Z,33.94
2018-06-09T11:26:49.907Z,33.99
2018-06-09T11:29:20.513Z,34.07
2018-06-09T11:31:51.165Z,34.21
2018-06-09T11:34:21.781Z,34.39
2018-06-09T11:36:52.343Z,34.35
2018-06-09T11:39:22.934Z,34.47
2018-06-09T11:41:53.574Z,34.63
2018-06-09T11:44:24.233Z,34.97
2018-06-09T11:46:54.878Z,35.06
2018-06-09T11:49:25.491Z,34.97
2018-06-09T11:51:56.037Z,34.93
2018-06-09T11:54:26.607Z,35.01
2018-06-09T11:56:57.191Z,34.79
2018-06-09T11:59:27.914Z,34.84
2018-06-09T12:01:58.512Z,34.90
2018-06-09T12:04:29.166Z,34.94
2018-06-09T12:07:00.505Z,35.04
2018-06-09T12:09:31.231Z,35.11
2018-06-09T12:12:01.874Z,35.14
2018-06-09T12:14:32.173Z,35.02
2018-06-09T12:17:02.618Z,34.76
2018-06-09T12:19:33.176Z,34.71
2018-06-09T12:22:03.838Z,34.67
2018-06-09T12:24:34.406Z,34.75
2018-06-09T12:27:05.049Z,34.90
2018-06-09T12:29:35.654Z,35.06
2018-06-09T12:32:06.339Z,35.10
2018-06-09T12:34:36.934Z,35.07
2018-06-09T12:37:07.569Z,34.95
2018-06-09T12:39:38.121Z,35.07
2018-06-09T12:42:08.723Z,35.27
2018-06-09T12:44:39.288Z,35.34
2018-06-09T12:47:09.887Z,35.49
2018-06-09T12:49:40.483Z,35.60
2018-06-09T12:52:11.112Z,35.77
2018-06-09T12:54:41.672Z,35.78
2018-06-09T12:57:12.330Z,35.86
2018-06-09T12:59:42.865Z,35.77
2018-06-09T13:02:13.448Z,35.38
2018-06-09T13:04:44.037Z,35.44
2018-06-09T13:07:14.623Z,35.59
2018-06-09T13:09:45.234Z,35.68
2018-06-09T13:12:15.809Z,35.74
2018-06-09T13:14:46.405Z,35.81
2018-06-09T13:17:16.973Z,35.83
2018-06-09T13:19:47.625Z,35.83
2018-06-09T13:22:17.940Z,35.85
2018-06-09T13:24:48.372Z,35.91
2018-06-09T13:27:18.965Z,35.84
2018-06-09T13:29:49.536Z,35.95
2018-06-09T13:32:20.197Z,35.66
2018-06-09T13:34:50.857Z,35.54
2018-06-09T13:37:21.487Z,35.51
2018-06-09T13:39:52.051Z,35.64
2018-06-09T13:42:22.617Z,35.70
2018-06-09T13:44:53.246Z,35.77
2018-06-09T13:47:23.863Z,35.73
2018-06-09T13:49:54.474Z,35.80
2018-06-09T13:52:24.755Z,35.91
2018-06-09T13:54:55.172Z,35.84
2018-06-09T13:57:25.783Z,35.94
2018-06-09T13:59:56.361Z,35.92
2018-06-09T14:02:26.981Z,35.94
2018-06-09T14:04:57.574Z,35.96
2018-06-09T14:07:28.183Z,35.88
2018-06-09T14:09:58.754Z,35.81
2018-06-09T14:12:29.367Z,35.74
2018-06-09T14:14:59.962Z,35.86
2018-06-09T14:17:30.517Z,35.98
2018-06-09T14:20:00.805Z,36.02
2018-06-09T14:22:31.246Z,36.02
2018-06-09T14:25:01.847Z,35.85
2018-06-09T14:27:32.474Z,35.76
2018-06-09T14:30:03.041Z,35.80
2018-06-09T14:32:33.612Z,35.74
2018-06-09T14:35:04.242Z,35.77
2018-06-09T14:37:34.808Z,35.80
2018-06-09T14:40:06.198Z,35.79
2018-06-09T14:42:36.732Z,35.78
2018-06-09T14:45:07.436Z,35.78
2018-06-09T14:47:38.001Z,35.83
2018-06-09T14:50:08.635Z,35.86
2018-06-09T14:52:39.274Z,35.85
2018-06-09T14:55:09.840Z,35.69
2018-06-09T14:57:40.462Z,35.62
2018-06-09T15:00:11.028Z,35.67
2018-06-09T15:02:41.627Z,35.59
2018-06-09T15:05:12.239Z,35.63
2018-06-09T15:07:42.856Z,35.56
2018-06-09T15:10:13.497Z,35.41
2018-06-09T15:12:44.097Z,35.00
2018-06-09T15:15:14.760Z,34.65
2018-06-09T15:17:45.385Z,34.47
2018-06-09T15:20:16.003Z,34.23
2018-06-09T15:22:46.652Z,34.05
2018-06-09T15:25:17.280Z,34.12
2018-06-09T15:27:47.994Z,34.21
2018-06-09T15:30:18.644Z,34.24
2018-06-09T15:32:49.240Z,34.29
2018-06-09T15:35:19.902Z,34.20
2018-06-09T15:37:50.457Z,34.29
2018-06-09T15:40:21.023Z,34.22
2018-06-09T15:42:51.618Z,34.23
2018-06-09T15:45:22.227Z,34.24
2018-06-09T15:47:52.784Z,34.23
2018-06-09T15:50:23.404Z,34.18
2018-06-09T15:52:53.983Z,34.09
2018-06-09T15:55:24.254Z,33.91
2018-06-09T15:57:54.692Z,33.83
2018-06-09T16:00:25.280Z,33.79
2018-06-09T16:02:55.864Z,33.72
2018-06-09T16:05:26.588Z,33.61
2018-06-09T16:07:57.149Z,33.54
2018-06-09T16:10:27.724Z,33.51
2018-06-09T16:12:58.259Z,33.43
2018-06-09T16:15:28.837Z,33.39
2018-06-09T16:17:59.416Z,33.22
2018-06-09T16:20:29.999Z,33.11
2018-06-09T16:23:00.536Z,33.04
2018-06-09T16:25:31.218Z,32.98
2018-06-09T16:28:01.848Z,32.95
2018-06-09T16:30:32.433Z,32.86
2018-06-09T16:33:02.993Z,32.72
2018-06-09T16:35:33.723Z,32.63
2018-06-09T16:38:04.319Z,32.53
2018-06-09T16:40:34.955Z,32.46
2018-06-09T16:43:05.517Z,32.42
2018-06-09T16:45:36.111Z,32.40
2018-06-09T16:48:06.819Z,32.28
2018-06-09T16:50:37.394Z,32.25
2018-06-09T16:53:07.949Z,32.14
2018-06-09T16:55:38.573Z,31.96
2018-06-09T16:58:09.178Z,31.82
2018-06-09T17:00:39.784Z,31.68
2018-06-09T17:03:10.375Z,31.56
2018-06-09T17:05:40.953Z,31.40
2018-06-09T17:08:11.534Z,31.28
2018-06-09T17:10:42.137Z,31.17
2018-06-09T17:13:12.674Z,31.08
2018-06-09T17:15:43.274Z,30.94
2018-06-09T17:18:13.894Z,30.77
2018-06-09T17:20:44.436Z,30.59
2018-06-09T17:23:15.072Z,30.40
2018-06-09T17:25:45.781Z,30.26
2018-06-09T17:28:16.402Z,30.06
2018-06-09T17:30:47.053Z,29.92
2018-06-09T17:33:17.734Z,29.77
2018-06-09T17:35:48.343Z,29.64
2018-06-09T17:38:18.969Z,29.59
2018-06-09T17:40:49.593Z,29.49
2018-06-09T17:43:20.211Z,29.50
2018-06-09T17:45:50.792Z,29.51
2018-06-09T17:48:21.371Z,29.45
2018-06-09T17:50:52.012Z,29.40
2018-06-09T17:53:22.645Z,29.44
2018-06-09T17:55:53.210Z,29.40
2018-06-09T17:58:23.758Z,29.40
2018-06-09T18:00:54.334Z,29.39
2018-06-09T18:03:24.938Z,29.35
2018-06-09T18:05:55.513Z,29.28
2018-06-09T18:08:26.087Z,29.21
2018-06-09T18:10:56.677Z,29.14
2018-06-09T18:13:27.293Z,29.10
2018-06-09T18:15:57.848Z,29.07
2018-06-09T18:18:28.444Z,28.99
2018-06-09T18:20:59.017Z,28.93
2018-06-09T18:23:29.577Z,28.86
2018-06-09T18:26:00.202Z,28.77
2018-06-09T18:28:30.756Z,28.71
2018-06-09T18:31:01.355Z,28.63
2018-06-09T18:33:31.920Z,28.56
2018-06-09T18:36:02.477Z,28.48
2018-06-09T18:38:33.077Z,28.37
2018-06-09T18:41:03.686Z,28.29
2018-06-09T18:43:34.263Z,28.19
2018-06-09T18:46:04.853Z,28.08
2018-06-09T18:48:35.409Z,27.99
2018-06-09T18:51:06.045Z,27.93
2018-06-09T18:53:36.596Z,27.85
2018-06-09T18:56:07.188Z,27.74
2018-06-09T18:58:37.824Z,27.60
2018-06-09T19:01:08.344Z,27.55
2018-06-09T19:03:38.935Z,27.53
2018-06-09T19:06:09.481Z,27.41
2018-06-09T19:08:40.022Z,27.35
2018-06-09T19:11:10.684Z,27.27
2018-06-09T19:13:41.228Z,27.22
2018-06-09T19:16:11.825Z,27.15
2018-06-09T19:18:42.398Z,27.12
2018-06-09T19:21:13.020Z,27.07
2018-06-09T19:23:43.636Z,26.97
2018-06-09T19:26:14.177Z,26.91
2018-06-09T19:28:44.757Z,26.87
2018-06-09T19:31:15.334Z,26.80
2018-06-09T19:33:45.937Z,26.74
2018-06-09T19:36:16.512Z,26.70
2018-06-09T19:38:47.056Z,26.64
2018-06-09T19:41:17.654Z,26.58
2018-06-09T19:43:48.297Z,26.53
2018-06-09T19:46:18.857Z,26.44
2018-06-09T19:48:49.577Z,26.39
2018-06-09T19:51:20.170Z,26.37
2018-06-09T19:53:50.927Z,26.32
2018-06-09T19:56:21.489Z,26.29
2018-06-09T19:58:52.084Z,26.26
2018-06-09T20:01:22.661Z,26.18
2018-06-09T20:03:53.304Z,26.14
2018-06-09T20:06:23.926Z,26.06
2018-06-09T20:08:54.539Z,26.01
2018-06-09T20:11:25.148Z,25.98
2018-06-09T20:13:55.721Z,25.94
2018-06-09T20:16:26.356Z,25.92
2018-06-09T20:18:56.956Z,25.88
2018-06-09T20:21:27.565Z,25.82
2018-06-09T20:23:57.806Z,25.78
2018-06-09T20:26:28.283Z,25.74
2018-06-09T20:28:58.857Z,25.70
2018-06-09T20:31:29.490Z,25.70
2018-06-09T20:34:00.165Z,25.63
2018-06-09T20:36:31.760Z,25.57
2018-06-09T20:39:02.511Z,25.55
2018-06-09T20:41:33.719Z,25.49
2018-06-09T20:44:04.380Z,25.44
2018-06-09T20:46:36.091Z,25.40
2018-06-09T20:49:06.744Z,25.41
2018-06-09T20:51:37.409Z,25.40
2018-06-09T20:54:07.977Z,25.38
2018-06-09T20:56:38.600Z,25.38
2018-06-09T20:59:09.228Z,25.39
2018-06-09T21:01:39.836Z,25.39
2018-06-09T21:04:10.406Z,25.34
2018-06-09T21:06:41.027Z,25.33
2018-06-09T21:09:11.660Z,25.30
2018-06-09T21:11:42.350Z,25.26
2018-06-09T21:14:12.897Z,25.25
2018-06-09T21:16:43.529Z,25.22
2018-06-09T21:19:14.100Z,25.24
2018-06-09T21:21:44.796Z,25.20
2018-06-09T21:24:15.386Z,25.16
2018-06-09T21:26:51.178Z,25.12
2018-06-09T21:29:26.904Z,25.10
2018-06-09T21:31:57.540Z,25.06
2018-06-09T21:34:50.083Z,25.04
2018-06-09T21:37:25.696Z,24.96
2018-06-09T21:40:05.215Z,24.87
2018-06-09T21:42:40.180Z,24.83
2018-06-09T21:45:12.046Z,24.79
2018-06-09T21:47:42.593Z,24.77
2018-06-09T21:50:13.205Z,24.77
2018-06-09T21:52:43.804Z,24.77
2018-06-09T21:55:14.393Z,24.75
2018-06-09T21:57:45.031Z,24.69
2018-06-09T22:00:15.635Z,24.63
2018-06-09T22:02:46.389Z,24.64
2018-06-09T22:05:17.233Z,24.61
2018-06-09T22:07:47.831Z,24.59
2018-06-09T22:10:18.496Z,24.55
2018-06-09T22:12:49.133Z,24.52
2018-06-09T22:15:19.706Z,24.49
2018-06-09T22:17:50.334Z,24.47
2018-06-09T22:20:21.014Z,24.41
2018-06-09T22:22:51.702Z,24.41
2018-06-09T22:25:27.333Z,24.41
2018-06-09T22:27:57.899Z,24.36
2018-06-09T22:30:28.497Z,24.33
2018-06-09T22:32:59.119Z,24.34
2018-06-09T22:35:29.725Z,24.24
2018-06-09T22:38:00.286Z,24.21
2018-06-09T22:40:30.886Z,24.18
2018-06-09T22:43:01.581Z,24.15
2018-06-09T22:45:32.142Z,24.14
2018-06-09T22:48:02.774Z,24.14
2018-06-09T22:50:33.343Z,24.18
2018-06-09T22:53:03.941Z,24.18
2018-06-09T22:55:34.574Z,24.17
2018-06-09T22:58:05.148Z,24.12
2018-06-09T23:00:49.015Z,24.11
2018-06-09T23:03:19.789Z,24.05
2018-06-09T23:05:50.390Z,24.01
2018-06-09T23:08:20.971Z,24.04
2018-06-09T23:10:51.545Z,24.08
2018-06-09T23:13:22.105Z,23.92
2018-06-09T23:15:52.645Z,23.86
2018-06-09T23:18:23.215Z,23.74
2018-06-09T23:20:53.753Z,23.72
2018-06-09T23:23:24.352Z,23.73
2018-06-09T23:25:54.966Z,23.72
2018-06-09T23:28:25.549Z,23.80
2018-06-09T23:30:56.109Z,23.75
2018-06-09T23:33:26.693Z,23.71
2018-06-09T23:35:57.241Z,23.65
2018-06-09T23:38:27.806Z,23.59
2018-06-09T23:40:58.377Z,23.54
2018-06-09T23:43:29.001Z,23.53
2018-06-09T23:45:59.607Z,23.39
2018-06-09T23:48:30.134Z,23.33
2018-06-09T23:51:00.693Z,23.27
2018-06-09T23:53:31.261Z,23.25
2018-06-09T23:56:01.823Z,23.17
2018-06-09T23:58:32.386Z,23.07
